CW8727 Weather Reports


Display with metric or nautical units.
time (UTC)temp
F
wind
direction
speed
MPH
gust
MPH
rain 1hr
in
rain 24hr
in
rain mn
in
humidity
%
barometer
mb
20180221052710 53 153 0.0 0.0 0.00 0.00 0.00 89 1024.7
20180221051709 52 153 0.0 0.0 0.00 0.00 0.00 88 1024.7
20180221045710 53 175 0.0 0.0 0.00 0.00 0.00 88 1024.6
20180221041710 54 175 0.0 0.0 0.00 0.00 0.00 88 1024.7
20180221040709 53 175 0.0 0.0 0.00 0.00 0.00 87 1024.8
20180221035709 53 175 0.0 0.0 0.00 0.00 0.00 87 1024.7
20180221033710 54 138 0.0 0.0 0.00 0.00 0.00 86 1024.6
20180221032710 54 136 0.0 0.0 0.00 0.00 0.00 86 1024.5
20180221031709 54 136 0.0 0.0 0.00 0.00 0.00 85 1024.6
20180221030710 54 136 0.0 1.0 0.00 0.00 0.00 85 1024.5
20180221025710 54 144 0.0 0.0 0.00 0.00 0.00 84 1024.5
20180221024710 55 146 0.0 0.0 0.00 0.00 0.00 84 1024.5
20180221023710 55 145 0.0 0.0 0.00 0.00 0.00 83 1024.6
20180221022710 55 97 0.0 0.0 0.00 0.00 0.00 83 1024.4
20180221021710 56 143 0.0 0.0 0.00 0.00 0.00 83 1024.5
20180221014710 56 113 3.0 8.0 0.00 0.00 0.00 82 1024.4
20180221013710 57 210 0.0 0.0 0.00 0.00 0.00 81 1024.4
20180221012710 57 140 0.0 5.0 0.00 0.00 0.00 80 1024.5
20180221011710 58 156 0.0 4.0 0.00 0.00 0.00 80 1024.3
20180221005709 58 223 0.0 0.0 0.00 0.00 0.00 79 1024.1
20180221003710 59 128 0.0 5.0 0.00 0.00 0.00 78 1023.9
20180221002709 60 167 1.0 4.0 0.00 0.00 0.00 77 1023.8
20180221001710 60 210 0.0 5.0 0.00 0.00 0.00 77 1023.9
20180221000710 60 142 0.0 0.0 0.00 0.00 0.00 76 1023.9
20180220234710 61 209 2.0 7.0 0.00 0.00 0.00 75 1023.9
20180220233710 61 192 3.0 7.0 0.00 0.00 0.00 75 1023.7
20180220232709 62 162 1.0 6.0 0.00 0.00 0.00 74 1023.6
20180220231710 62 227 4.0 6.0 0.00 0.00 0.00 73 1023.6
20180220224710 62 206 2.0 6.0 0.00 0.00 0.00 73 1023.2
20180220221709 63 145 0.0 6.0 0.00 0.00 0.00 71 1022.9
20180220214709 65 169 0.0 5.0 0.00 0.00 0.00 68 1022.6
20180220212710 65 213 4.0 6.0 0.00 0.00 0.00 67 1022.1
20180220210709 65 200 0.0 5.0 0.00 0.00 0.00 67 1022.1
20180220204709 66 182 0.0 5.0 0.00 0.00 0.00 66 1021.9
20180220202712 66 117 4.0 4.0 0.00 0.00 0.00 66 1021.9
20180220201709 66 227 0.0 5.0 0.00 0.00 0.00 66 1021.9
20180220200710 66 195 0.0 5.0 0.00 0.00 0.00 65 1022.0
20180220195713 66 221 0.0 4.0 0.00 0.00 0.00 65 1022.0
20180220194710 66 225 3.0 5.0 0.00 0.00 0.00 65 1021.9
20180220191709 64 166 0.0 3.0 0.00 0.00 0.00 69 1022.4
20180220185709 62 228 4.0 6.0 0.00 0.00 0.00 71 1022.2
20180220184710 62 209 0.0 1.0 0.00 0.00 0.00 73 1022.1
20180220183710 61 194 3.0 5.0 0.00 0.00 0.00 74 1022.2
20180220181709 60 229 5.0 5.0 0.00 0.00 0.00 76 1022.5
20180220175710 59 182 0.0 5.0 0.00 0.00 0.00 78 1022.8
20180220172709 57 238 0.0 5.0 0.00 0.00 0.00 82 1023.1
20180220165710 55 303 0.0 0.0 0.00 0.00 0.00 86 1023.8
20180220163710 53 22 0.0 0.0 0.00 0.00 0.00 89 1024.1
20180220162710 53 188 0.0 4.0 0.00 0.00 0.00 89 1024.2
20180220154710 51 223 2.0 4.0 0.00 0.00 0.00 91 1024.4
20180220152709 50 236 0.0 0.0 0.00 0.00 0.00 91 1024.5
20180220151710 50 232 0.0 4.0 0.00 0.00 0.00 92 1024.6
20180220150709 49 198 3.0 6.0 0.00 0.00 0.00 92 1024.4
20180220145709 49 251 6.0 9.0 0.00 0.00 0.00 92 1024.5
20180220144710 49 223 0.0 4.0 0.00 0.00 0.00 92 1024.4
20180220142710 49 211 3.0 6.0 0.00 0.00 0.00 92 1024.6
20180220141710 48 161 4.0 4.0 0.00 0.00 0.00 92 1024.7
20180220135710 48 145 0.0 0.0 0.00 0.00 0.00 93 1024.6
20180220134709 48 240 0.0 0.0 0.00 0.00 0.00 93 1024.6
20180220132709 47 336 0.0 0.0 0.00 0.00 0.00 93 1024.7
20180220125710 47 336 0.0 0.0 0.00 0.00 0.00 92 1024.8
20180220124710 47 205 0.0 0.0 0.00 0.00 0.00 92 1024.5
20180220123709 47 205 0.0 0.0 0.00 0.00 0.00 92 1024.5
20180220122710 47 189 0.0 0.0 0.00 0.00 0.00 92 1024.4
20180220120709 48 194 0.0 5.0 0.00 0.00 0.00 93 1024.3
20180220115710 47 221 0.0 3.0 0.00 0.00 0.00 93 1024.3
20180220114711 47 190 0.0 4.0 0.00 0.00 0.00 92 1024.1
20180220111710 47 198 0.0 0.0 0.00 0.00 0.00 93 1023.8
20180220104709 47 232 0.0 0.0 0.00 0.00 0.00 93 1023.7
20180220103710 47 84 0.0 0.0 0.00 0.00 0.00 92 1023.7
20180220102709 47 71 0.0 0.0 0.00 0.00 0.00 93 1023.6
20180220094709 47 66 0.0 5.0 0.00 0.00 0.00 92 1023.4
20180220084709 47 178 0.0 5.0 0.00 0.00 0.00 92 1023.4
20180220083709 47 239 0.0 4.0 0.00 0.00 0.00 92 1023.4
20180220080709 47 187 0.0 6.0 0.00 0.00 0.00 92 1023.5
20180220075709 46 216 0.0 0.0 0.00 0.00 0.00 92 1023.8
20180220074710 47 206 0.0 7.0 0.00 0.00 0.00 92 1023.8
20180220073709 47 215 0.0 7.0 0.00 0.00 0.00 92 1024.1
20180220072710 47 194 2.0 5.0 0.00 0.00 0.00 92 1024.0
20180220071709 46 96 0.0 5.0 0.00 0.00 0.00 92 1024.1
20180220070710 46 94 0.0 6.0 0.00 0.00 0.00 92 1024.0
20180220064710 46 194 0.0 5.0 0.00 0.00 0.00 92 1024.0
20180220063709 46 198 0.0 5.0 0.00 0.00 0.00 92 1024.3
20180220062709 46 232 2.0 6.0 0.00 0.00 0.00 92 1024.2
20180220061709 46 163 0.0 3.0 0.00 0.00 0.00 92 1024.3
20180220060710 45 148 0.0 2.0 0.00 0.00 0.00 92 1024.3
20180220055709 45 209 0.0 8.0 0.00 0.00 0.00 92 1024.5